createdAt,value
2023-03-02T00:04:46.640Z,-1.88
2023-03-02T00:10:48.965Z,-1.00
2023-03-02T00:16:54.260Z,-0.95
2023-03-02T00:23:00.887Z,-1.36
2023-03-02T00:29:04.368Z,-0.77
2023-03-02T00:35:11.825Z,-1.34
2023-03-02T00:41:15.304Z,-0.89
2023-03-02T00:47:20.114Z,-0.66
2023-03-02T00:53:22.259Z,-0.34
2023-03-02T00:59:27.707Z,-0.82
2023-03-02T01:05:33.160Z,-0.37
2023-03-02T01:11:35.648Z,-0.79
2023-03-02T01:17:45.160Z,-0.92
2023-03-02T01:23:47.574Z,-0.52
2023-03-02T01:29:52.098Z,-0.40
2023-03-02T01:35:58.423Z,-1.03
2023-03-02T01:42:03.554Z,-1.05
2023-03-02T01:48:05.549Z,-1.23
2023-03-02T01:54:23.211Z,-0.42
2023-03-02T02:00:32.773Z,-0.16
2023-03-02T02:06:45.059Z,-0.60
2023-03-02T02:12:49.352Z,-0.08
2023-03-02T02:18:56.009Z,-0.04
2023-03-02T02:25:05.490Z,-0.40
2023-03-02T02:31:58.268Z,-0.43
2023-03-02T02:38:06.608Z,-0.28
2023-03-02T02:44:17.092Z,-0.58
2023-03-02T02:50:24.590Z,-0.28
2023-03-02T02:56:42.081Z,-0.63
2023-03-02T03:02:49.586Z,-1.48
2023-03-02T03:09:05.086Z,-0.71
2023-03-02T03:15:12.532Z,-0.30
2023-03-02T03:21:15.019Z,-0.95
2023-03-02T03:27:17.474Z,-0.43
2023-03-02T03:33:19.958Z,-0.90
2023-03-02T03:39:22.446Z,-0.48
2023-03-02T03:45:24.932Z,-0.18
2023-03-02T03:51:28.398Z,-0.78
2023-03-02T03:57:38.342Z,-0.73
2023-03-02T04:03:41.309Z,-0.40
2023-03-02T04:09:49.004Z,-0.64
2023-03-02T04:15:56.988Z,-0.73
2023-03-02T04:22:02.768Z,-0.47
2023-03-02T04:28:14.288Z,-0.71
2023-03-02T04:34:28.264Z,-1.72
2023-03-02T04:40:34.241Z,-1.73
2023-03-02T04:46:36.822Z,-0.69
2023-03-02T04:52:40.156Z,-0.94
2023-03-02T04:58:51.891Z,-0.95
2023-03-02T05:04:57.327Z,-1.21
2023-03-02T05:11:14.360Z,-1.31
2023-03-02T05:17:18.151Z,-0.80
2023-03-02T05:23:36.427Z,-0.81
2023-03-02T05:29:39.185Z,-0.78
2023-03-02T05:35:51.711Z,-2.27
2023-03-02T05:41:54.119Z,-0.96
2023-03-02T05:48:06.680Z,-1.30
2023-03-02T05:54:15.753Z,-1.49
2023-03-02T06:00:19.606Z,-0.09
2023-03-02T06:06:34.383Z,0.12
2023-03-02T06:12:41.814Z,0.02
2023-03-02T06:18:48.046Z,0.18
2023-03-02T06:25:02.008Z,0.30
2023-03-02T06:31:05.055Z,0.72
2023-03-02T06:37:16.584Z,0.99
2023-03-02T06:43:20.884Z,-0.40
2023-03-02T06:49:23.542Z,1.61
2023-03-02T06:55:29.003Z,1.49
2023-03-02T07:01:36.717Z,1.67
2023-03-02T07:07:39.998Z,0.50
2023-03-02T07:13:48.230Z,1.22
2023-03-02T07:19:56.488Z,0.21
2023-03-02T07:26:04.926Z,0.55
2023-03-02T07:32:12.446Z,0.38
2023-03-02T07:38:15.375Z,1.77
2023-03-02T07:44:17.819Z,1.67
2023-03-02T07:50:22.657Z,2.38
2023-03-02T07:56:25.756Z,1.48
2023-03-02T08:02:32.243Z,2.29
2023-03-02T08:08:37.705Z,2.38
2023-03-02T08:14:43.352Z,2.62
2023-03-02T08:20:45.642Z,2.75
2023-03-02T08:26:48.100Z,2.65
2023-03-02T08:32:50.656Z,2.58
2023-03-02T08:38:53.043Z,3.08
2023-03-02T08:44:55.542Z,3.11
2023-03-02T08:51:15.012Z,3.43
2023-03-02T08:57:18.258Z,3.56
2023-03-02T09:03:21.970Z,3.77
2023-03-02T09:09:24.421Z,4.00
2023-03-02T09:15:26.278Z,4.43
2023-03-02T09:21:29.497Z,4.01
2023-03-02T09:27:31.820Z,4.48
2023-03-02T09:33:36.288Z,4.79
2023-03-02T09:39:39.841Z,5.08
2023-03-02T09:46:13.120Z,4.99
2023-03-02T09:52:30.921Z,4.70
2023-03-02T09:58:38.351Z,4.27
2023-03-02T10:04:50.918Z,5.11
2023-03-02T10:11:13.161Z,4.92
2023-03-02T10:17:34.953Z,6.13
2023-03-02T10:23:47.440Z,5.70
2023-03-02T10:30:06.987Z,5.22
2023-03-02T10:36:40.554Z,5.56
2023-03-02T10:42:42.973Z,5.53
2023-03-02T10:48:58.494Z,5.50
2023-03-02T10:55:14.092Z,5.47
2023-03-02T11:01:20.467Z,5.86
2023-03-02T11:07:24.939Z,5.46
2023-03-02T11:13:31.439Z,5.53
2023-03-02T11:19:39.917Z,6.02
2023-03-02T11:25:49.404Z,6.30
2023-03-02T11:32:39.111Z,5.13
2023-03-02T11:40:08.046Z,6.03
2023-03-02T11:45:47.322Z,6.19
2023-03-02T11:52:02.860Z,6.05
2023-03-02T11:58:47.742Z,6.54
2023-03-02T12:04:49.842Z,6.23
2023-03-02T12:11:03.510Z,6.94
2023-03-02T12:17:28.914Z,6.97
2023-03-02T12:23:33.425Z,7.03
2023-03-02T12:29:45.861Z,7.34
2023-03-02T12:36:00.386Z,6.44
2023-03-02T12:42:34.051Z,6.73
2023-03-02T12:48:57.600Z,6.92
2023-03-02T12:55:21.078Z,4.95
2023-03-02T13:01:41.772Z,6.54
2023-03-02T13:08:32.350Z,6.62
2023-03-02T13:14:35.715Z,6.73
2023-03-02T13:20:39.203Z,6.57
2023-03-02T13:26:41.066Z,6.28
2023-03-02T13:32:45.469Z,7.30
2023-03-02T13:38:59.017Z,7.00
2023-03-02T13:45:29.209Z,7.14
2023-03-02T13:51:40.662Z,7.10
2023-03-02T13:57:48.158Z,7.11
2023-03-02T14:03:50.641Z,7.25
2023-03-02T14:09:56.518Z,7.24
2023-03-02T14:15:59.584Z,7.26
2023-03-02T14:22:02.971Z,7.86
2023-03-02T14:28:07.441Z,7.32
2023-03-02T14:34:16.938Z,7.54
2023-03-02T14:40:29.588Z,6.79
2023-03-02T14:46:36.096Z,6.96
2023-03-02T14:53:11.321Z,6.71
2023-03-02T14:59:24.032Z,6.17
2023-03-02T15:05:29.548Z,6.50
2023-03-02T15:11:32.684Z,6.75
2023-03-02T15:17:38.519Z,6.80
2023-03-02T15:23:40.954Z,6.32
2023-03-02T15:29:48.451Z,7.03
2023-03-02T15:35:55.644Z,6.88
2023-03-02T15:41:58.381Z,6.85
2023-03-02T15:48:00.826Z,7.05
2023-03-02T15:54:15.608Z,7.01
2023-03-02T16:00:30.629Z,6.33
2023-03-02T16:06:34.983Z,6.76
2023-03-02T16:12:37.771Z,6.58
2023-03-02T16:18:40.234Z,5.26
2023-03-02T16:24:51.011Z,5.84
2023-03-02T16:31:06.876Z,5.54
2023-03-02T16:37:09.782Z,4.65
2023-03-02T16:43:13.137Z,3.56
2023-03-02T16:49:20.628Z,4.80
2023-03-02T16:55:27.342Z,4.90
2023-03-02T17:01:30.565Z,4.89
2023-03-02T17:07:40.275Z,4.55
2023-03-02T17:13:42.471Z,2.62
2023-03-02T17:19:46.944Z,3.93
2023-03-02T17:25:50.678Z,3.81
2023-03-02T17:31:53.951Z,0.68
2023-03-02T17:38:04.363Z,2.75
2023-03-02T17:44:19.763Z,3.61
2023-03-02T17:57:00.648Z,3.17
2023-03-02T18:03:33.161Z,1.98
2023-03-02T18:09:44.935Z,2.30
2023-03-02T18:16:12.871Z,1.59
2023-03-02T18:22:30.826Z,1.85
2023-03-02T18:28:35.904Z,2.26
2023-03-02T18:34:42.895Z,2.24
2023-03-02T18:40:52.156Z,1.46
2023-03-02T18:47:05.911Z,1.99
2023-03-02T18:54:00.771Z,0.43
2023-03-02T19:00:31.645Z,1.02
2023-03-02T19:06:50.225Z,0.39
2023-03-02T19:13:10.229Z,1.66
2023-03-02T19:25:44.124Z,1.51
2023-03-02T19:31:54.165Z,-0.59
2023-03-02T19:38:14.220Z,1.02
2023-03-02T19:44:32.269Z,1.02
2023-03-02T19:50:44.309Z,0.16
2023-03-02T19:57:01.531Z,0.84
2023-03-02T20:03:29.324Z,0.63
2023-03-02T20:16:02.870Z,-0.42
2023-03-02T20:22:21.796Z,0.50
2023-03-02T20:28:53.277Z,-0.43
2023-03-02T20:35:02.683Z,-0.78
2023-03-02T20:41:33.031Z,-0.53
2023-03-02T20:48:01.161Z,-0.61
2023-03-02T20:54:12.777Z,-0.31
2023-03-02T21:00:22.015Z,0.02
2023-03-02T21:06:30.240Z,-0.71
2023-03-02T21:12:35.448Z,-0.14
2023-03-02T21:19:03.193Z,-1.33
2023-03-02T21:25:13.977Z,-0.90
2023-03-02T21:32:03.387Z,-1.33
2023-03-02T21:38:07.713Z,-2.02
2023-03-02T21:50:51.965Z,-0.32
2023-03-02T21:57:04.315Z,-0.48
2023-03-02T22:03:31.509Z,-0.50
2023-03-02T22:09:43.549Z,-0.53
2023-03-02T22:16:21.110Z,-0.76
2023-03-02T22:22:40.911Z,-0.52
2023-03-02T22:35:43.881Z,-1.82
2023-03-02T22:48:23.037Z,-0.86
2023-03-02T22:54:45.785Z,-1.08
2023-03-02T23:01:11.605Z,-1.00
2023-03-02T23:13:52.489Z,-1.28
2023-03-02T23:19:54.465Z,-1.19
2023-03-02T23:26:13.158Z,-2.28
2023-03-02T23:32:43.752Z,-1.68
2023-03-02T23:38:53.034Z,-1.29
2023-03-02T23:45:02.335Z,-1.69
2023-03-02T23:51:35.597Z,-1.97
2023-03-02T23:57:33.708Z,-1.40
